sensor_id;sensor_type;location;lat;lon;timestamp;temperature;humidity
17452;DHT22;8843;48.838;9.324;2023-02-28T00:00:29;5.80;72.10
17452;DHT22;8843;48.838;9.324;2023-02-28T00:02:56;5.80;72.10
17452;DHT22;8843;48.838;9.324;2023-02-28T00:05:25;5.80;72.20
17452;DHT22;8843;48.838;9.324;2023-02-28T00:07:53;5.80;72.30
17452;DHT22;8843;48.838;9.324;2023-02-28T00:10:21;5.80;72.40
17452;DHT22;8843;48.838;9.324;2023-02-28T00:12:51;5.80;72.20
17452;DHT22;8843;48.838;9.324;2023-02-28T00:15:18;5.80;72.30
17452;DHT22;8843;48.838;9.324;2023-02-28T00:17:45;5.80;72.30
17452;DHT22;8843;48.838;9.324;2023-02-28T00:20:13;5.80;72.20
17452;DHT22;8843;48.838;9.324;2023-02-28T00:22:42;5.80;72.20
17452;DHT22;8843;48.838;9.324;2023-02-28T00:25:11;5.80;72.10
17452;DHT22;8843;48.838;9.324;2023-02-28T00:27:39;5.80;72.20
17452;DHT22;8843;48.838;9.324;2023-02-28T00:30:10;5.80;72.10
17452;DHT22;8843;48.838;9.324;2023-02-28T00:32:38;5.80;72.10
17452;DHT22;8843;48.838;9.324;2023-02-28T00:35:06;5.80;72.10
17452;DHT22;8843;48.838;9.324;2023-02-28T00:37:34;5.80;72.20
17452;DHT22;8843;48.838;9.324;2023-02-28T00:40:01;5.80;72.20
17452;DHT22;8843;48.838;9.324;2023-02-28T00:42:30;5.80;72.20
17452;DHT22;8843;48.838;9.324;2023-02-28T00:44:57;5.80;72.20
17452;DHT22;8843;48.838;9.324;2023-02-28T00:47:25;5.80;72.20
17452;DHT22;8843;48.838;9.324;2023-02-28T00:49:52;5.80;72.10
17452;DHT22;8843;48.838;9.324;2023-02-28T00:52:19;5.70;72.20
17452;DHT22;8843;48.838;9.324;2023-02-28T00:54:47;5.70;72.20
17452;DHT22;8843;48.838;9.324;2023-02-28T00:57:13;5.80;72.20
17452;DHT22;8843;48.838;9.324;2023-02-28T00:59:40;5.70;72.10
17452;DHT22;8843;48.838;9.324;2023-02-28T01:02:07;5.70;72.20
17452;DHT22;8843;48.838;9.324;2023-02-28T01:04:35;5.70;72.20
17452;DHT22;8843;48.838;9.324;2023-02-28T01:07:02;5.70;71.20
17452;DHT22;8843;48.838;9.324;2023-02-28T01:09:29;5.70;72.30
17452;DHT22;8843;48.838;9.324;2023-02-28T01:11:56;5.70;72.30
17452;DHT22;8843;48.838;9.324;2023-02-28T01:14:23;5.70;72.30
17452;DHT22;8843;48.838;9.324;2023-02-28T01:16:50;5.70;72.30
17452;DHT22;8843;48.838;9.324;2023-02-28T01:19:17;5.70;72.30
17452;DHT22;8843;48.838;9.324;2023-02-28T01:21:46;5.70;72.30
17452;DHT22;8843;48.838;9.324;2023-02-28T01:24:13;5.70;72.30
17452;DHT22;8843;48.838;9.324;2023-02-28T01:26:40;5.70;72.30
17452;DHT22;8843;48.838;9.324;2023-02-28T01:29:07;5.70;72.30
17452;DHT22;8843;48.838;9.324;2023-02-28T01:31:34;5.70;72.30
17452;DHT22;8843;48.838;9.324;2023-02-28T01:34:01;5.70;72.30
17452;DHT22;8843;48.838;9.324;2023-02-28T01:36:28;5.70;72.30
17452;DHT22;8843;48.838;9.324;2023-02-28T01:38:56;5.70;72.40
17452;DHT22;8843;48.838;9.324;2023-02-28T01:41:25;5.70;72.30
17452;DHT22;8843;48.838;9.324;2023-02-28T01:43:58;5.70;72.30
17452;DHT22;8843;48.838;9.324;2023-02-28T01:46:29;5.70;73.10
17452;DHT22;8843;48.838;9.324;2023-02-28T01:49:09;5.70;72.30
17452;DHT22;8843;48.838;9.324;2023-02-28T01:51:41;5.70;72.30
17452;DHT22;8843;48.838;9.324;2023-02-28T01:54:16;5.70;72.50
17452;DHT22;8843;48.838;9.324;2023-02-28T01:56:46;5.70;72.40
17452;DHT22;8843;48.838;9.324;2023-02-28T01:59:19;5.70;72.50
17452;DHT22;8843;48.838;9.324;2023-02-28T02:01:47;5.60;72.40
17452;DHT22;8843;48.838;9.324;2023-02-28T02:04:15;5.60;72.50
17452;DHT22;8843;48.838;9.324;2023-02-28T02:06:44;5.60;72.50
17452;DHT22;8843;48.838;9.324;2023-02-28T02:09:14;5.60;72.60
17452;DHT22;8843;48.838;9.324;2023-02-28T02:11:42;5.60;72.50
17452;DHT22;8843;48.838;9.324;2023-02-28T02:14:31;5.60;72.50
17452;DHT22;8843;48.838;9.324;2023-02-28T02:17:09;5.60;72.10
17452;DHT22;8843;48.838;9.324;2023-02-28T02:23:04;5.60;72.50
17452;DHT22;8843;48.838;9.324;2023-02-28T02:25:39;5.60;72.60
17452;DHT22;8843;48.838;9.324;2023-02-28T02:28:30;5.60;72.60
17452;DHT22;8843;48.838;9.324;2023-02-28T02:34:26;5.60;72.70
17452;DHT22;8843;48.838;9.324;2023-02-28T02:37:03;5.60;72.80
17452;DHT22;8843;48.838;9.324;2023-02-28T02:39:39;5.60;72.50
17452;DHT22;8843;48.838;9.324;2023-02-28T02:42:13;5.60;72.90
17452;DHT22;8843;48.838;9.324;2023-02-28T02:44:45;5.60;72.60
17452;DHT22;8843;48.838;9.324;2023-02-28T02:47:16;5.50;72.80
17452;DHT22;8843;48.838;9.324;2023-02-28T02:49:48;5.60;73.00
17452;DHT22;8843;48.838;9.324;2023-02-28T02:52:18;5.60;72.60
17452;DHT22;8843;48.838;9.324;2023-02-28T02:54:48;5.60;73.10
17452;DHT22;8843;48.838;9.324;2023-02-28T02:57:22;5.60;73.10
17452;DHT22;8843;48.838;9.324;2023-02-28T02:59:53;5.50;73.00
17452;DHT22;8843;48.838;9.324;2023-02-28T03:02:22;5.50;72.00
17452;DHT22;8843;48.838;9.324;2023-02-28T03:04:53;5.50;72.00
17452;DHT22;8843;48.838;9.324;2023-02-28T03:07:26;5.50;73.20
17452;DHT22;8843;48.838;9.324;2023-02-28T03:09:54;5.50;73.10
17452;DHT22;8843;48.838;9.324;2023-02-28T03:12:24;5.50;72.30
17452;DHT22;8843;48.838;9.324;2023-02-28T03:14:59;5.50;73.20
17452;DHT22;8843;48.838;9.324;2023-02-28T03:17:54;5.50;73.10
17452;DHT22;8843;48.838;9.324;2023-02-28T03:20:38;5.50;73.90
17452;DHT22;8843;48.838;9.324;2023-02-28T03:23:14;5.50;73.20
17452;DHT22;8843;48.838;9.324;2023-02-28T03:25:54;5.50;73.10
17452;DHT22;8843;48.838;9.324;2023-02-28T03:28:30;5.50;73.10
17452;DHT22;8843;48.838;9.324;2023-02-28T03:31:02;5.50;72.10
17452;DHT22;8843;48.838;9.324;2023-02-28T03:33:33;5.50;73.20
17452;DHT22;8843;48.838;9.324;2023-02-28T03:36:07;5.50;73.30
17452;DHT22;8843;48.838;9.324;2023-02-28T03:38:37;5.50;73.20
17452;DHT22;8843;48.838;9.324;2023-02-28T03:41:10;5.50;73.40
17452;DHT22;8843;48.838;9.324;2023-02-28T03:43:43;5.50;73.50
17452;DHT22;8843;48.838;9.324;2023-02-28T03:46:15;5.50;73.30
17452;DHT22;8843;48.838;9.324;2023-02-28T03:48:45;5.40;72.80
17452;DHT22;8843;48.838;9.324;2023-02-28T03:51:16;5.40;73.50
17452;DHT22;8843;48.838;9.324;2023-02-28T03:53:46;5.50;73.60
17452;DHT22;8843;48.838;9.324;2023-02-28T03:56:20;5.40;73.50
17452;DHT22;8843;48.838;9.324;2023-02-28T03:58:53;5.50;72.90
17452;DHT22;8843;48.838;9.324;2023-02-28T04:01:25;5.40;73.60
17452;DHT22;8843;48.838;9.324;2023-02-28T04:03:54;5.50;73.60
17452;DHT22;8843;48.838;9.324;2023-02-28T04:06:23;5.40;73.60
17452;DHT22;8843;48.838;9.324;2023-02-28T04:08:51;5.50;73.70
17452;DHT22;8843;48.838;9.324;2023-02-28T04:11:25;5.50;73.70
17452;DHT22;8843;48.838;9.324;2023-02-28T04:13:54;5.50;73.80
17452;DHT22;8843;48.838;9.324;2023-02-28T04:16:21;5.50;73.70
17452;DHT22;8843;48.838;9.324;2023-02-28T04:18:48;5.50;73.80
17452;DHT22;8843;48.838;9.324;2023-02-28T04:21:15;5.50;73.80
17452;DHT22;8843;48.838;9.324;2023-02-28T04:23:47;5.50;73.80
17452;DHT22;8843;48.838;9.324;2023-02-28T04:26:14;5.50;73.60
17452;DHT22;8843;48.838;9.324;2023-02-28T04:28:41;5.50;73.90
17452;DHT22;8843;48.838;9.324;2023-02-28T04:31:09;5.50;73.90
17452;DHT22;8843;48.838;9.324;2023-02-28T04:33:36;5.50;73.90
17452;DHT22;8843;48.838;9.324;2023-02-28T04:36:05;5.50;73.90
17452;DHT22;8843;48.838;9.324;2023-02-28T04:38:33;5.50;73.90
17452;DHT22;8843;48.838;9.324;2023-02-28T04:41:02;5.50;73.90
17452;DHT22;8843;48.838;9.324;2023-02-28T04:43:30;5.50;73.90
17452;DHT22;8843;48.838;9.324;2023-02-28T04:45:58;5.50;73.90
17452;DHT22;8843;48.838;9.324;2023-02-28T04:48:28;5.40;73.70
17452;DHT22;8843;48.838;9.324;2023-02-28T04:50:59;5.50;74.10
17452;DHT22;8843;48.838;9.324;2023-02-28T04:53:27;5.50;74.10
17452;DHT22;8843;48.838;9.324;2023-02-28T04:55:54;5.40;74.00
17452;DHT22;8843;48.838;9.324;2023-02-28T04:58:23;5.40;74.00
17452;DHT22;8843;48.838;9.324;2023-02-28T05:00:50;5.50;74.10
17452;DHT22;8843;48.838;9.324;2023-02-28T05:03:17;5.40;74.00
17452;DHT22;8843;48.838;9.324;2023-02-28T05:05:44;5.40;73.90
17452;DHT22;8843;48.838;9.324;2023-02-28T05:08:11;5.40;74.20
17452;DHT22;8843;48.838;9.324;2023-02-28T05:10:38;5.40;74.20
17452;DHT22;8843;48.838;9.324;2023-02-28T05:13:05;5.40;74.20
17452;DHT22;8843;48.838;9.324;2023-02-28T05:15:33;5.40;74.30
17452;DHT22;8843;48.838;9.324;2023-02-28T05:18:00;5.40;74.30
17452;DHT22;8843;48.838;9.324;2023-02-28T05:20:27;5.40;74.30
17452;DHT22;8843;48.838;9.324;2023-02-28T05:22:54;5.40;74.30
17452;DHT22;8843;48.838;9.324;2023-02-28T05:25:21;5.40;74.40
17452;DHT22;8843;48.838;9.324;2023-02-28T05:27:48;5.40;74.30
17452;DHT22;8843;48.838;9.324;2023-02-28T05:30:16;5.40;74.30
17452;DHT22;8843;48.838;9.324;2023-02-28T05:32:50;5.40;74.40
17452;DHT22;8843;48.838;9.324;2023-02-28T05:35:17;5.70;81.40
17452;DHT22;8843;48.838;9.324;2023-02-28T05:37:44;5.70;75.60
17452;DHT22;8843;48.838;9.324;2023-02-28T05:40:12;5.60;74.40
17452;DHT22;8843;48.838;9.324;2023-02-28T05:42:39;5.50;75.20
17452;DHT22;8843;48.838;9.324;2023-02-28T05:45:07;5.50;75.10
17452;DHT22;8843;48.838;9.324;2023-02-28T05:47:34;5.40;75.00
17452;DHT22;8843;48.838;9.324;2023-02-28T05:50:03;6.10;85.20
17452;DHT22;8843;48.838;9.324;2023-02-28T05:52:30;6.00;78.20
17452;DHT22;8843;48.838;9.324;2023-02-28T05:54:58;5.70;72.20
17452;DHT22;8843;48.838;9.324;2023-02-28T05:57:25;5.50;73.90
17452;DHT22;8843;48.838;9.324;2023-02-28T05:59:51;5.50;74.30
17452;DHT22;8843;48.838;9.324;2023-02-28T06:02:18;5.40;74.00
17452;DHT22;8843;48.838;9.324;2023-02-28T06:04:45;5.40;74.20
17452;DHT22;8843;48.838;9.324;2023-02-28T06:07:14;5.40;74.20
17452;DHT22;8843;48.838;9.324;2023-02-28T06:09:42;5.40;74.00
17452;DHT22;8843;48.838;9.324;2023-02-28T06:12:10;5.40;74.40
17452;DHT22;8843;48.838;9.324;2023-02-28T06:14:37;5.30;74.30
17452;DHT22;8843;48.838;9.324;2023-02-28T06:17:05;5.30;74.30
17452;DHT22;8843;48.838;9.324;2023-02-28T06:19:32;5.30;74.30
17452;DHT22;8843;48.838;9.324;2023-02-28T06:21:59;5.40;80.50
17452;DHT22;8843;48.838;9.324;2023-02-28T06:24:27;5.90;64.60
17452;DHT22;8843;48.838;9.324;2023-02-28T06:26:54;4.40;62.30
17452;DHT22;8843;48.838;9.324;2023-02-28T06:29:21;4.60;78.70
17452;DHT22;8843;48.838;9.324;2023-02-28T06:31:48;5.60;79.80
17452;DHT22;8843;48.838;9.324;2023-02-28T06:34:15;5.40;69.20
17452;DHT22;8843;48.838;9.324;2023-02-28T06:36:43;3.70;62.50
17452;DHT22;8843;48.838;9.324;2023-02-28T06:39:10;3.30;63.50
17452;DHT22;8843;48.838;9.324;2023-02-28T06:41:38;4.80;84.70
17452;DHT22;8843;48.838;9.324;2023-02-28T06:44:18;6.60;73.30
17452;DHT22;8843;48.838;9.324;2023-02-28T06:46:54;6.10;73.10
17452;DHT22;8843;48.838;9.324;2023-02-28T06:49:24;5.80;72.60
17452;DHT22;8843;48.838;9.324;2023-02-28T06:51:51;5.60;71.50
17452;DHT22;8843;48.838;9.324;2023-02-28T06:54:17;5.50;72.20
17452;DHT22;8843;48.838;9.324;2023-02-28T06:56:46;5.40;72.40
17452;DHT22;8843;48.838;9.324;2023-02-28T06:59:13;5.40;72.60
17452;DHT22;8843;48.838;9.324;2023-02-28T07:01:40;5.40;72.60
17452;DHT22;8843;48.838;9.324;2023-02-28T07:04:07;5.30;72.80
17452;DHT22;8843;48.838;9.324;2023-02-28T07:06:34;5.40;73.10
17452;DHT22;8843;48.838;9.324;2023-02-28T07:09:01;5.40;73.10
17452;DHT22;8843;48.838;9.324;2023-02-28T07:11:29;5.30;73.90
17452;DHT22;8843;48.838;9.324;2023-02-28T07:13:58;5.30;72.50
17452;DHT22;8843;48.838;9.324;2023-02-28T07:16:25;5.30;72.10
17452;DHT22;8843;48.838;9.324;2023-02-28T07:18:52;5.30;73.00
17452;DHT22;8843;48.838;9.324;2023-02-28T07:21:20;5.30;72.80
17452;DHT22;8843;48.838;9.324;2023-02-28T07:23:47;5.30;72.90
17452;DHT22;8843;48.838;9.324;2023-02-28T07:26:16;5.30;73.00
17452;DHT22;8843;48.838;9.324;2023-02-28T07:28:45;5.30;73.00
17452;DHT22;8843;48.838;9.324;2023-02-28T07:31:14;5.30;73.20
17452;DHT22;8843;48.838;9.324;2023-02-28T07:33:42;5.30;73.20
17452;DHT22;8843;48.838;9.324;2023-02-28T07:36:15;5.30;73.40
17452;DHT22;8843;48.838;9.324;2023-02-28T07:38:45;5.40;73.50
17452;DHT22;8843;48.838;9.324;2023-02-28T07:41:14;5.30;73.40
17452;DHT22;8843;48.838;9.324;2023-02-28T07:43:41;5.30;73.50
17452;DHT22;8843;48.838;9.324;2023-02-28T07:46:09;5.30;73.50
17452;DHT22;8843;48.838;9.324;2023-02-28T07:48:38;5.30;74.30
17452;DHT22;8843;48.838;9.324;2023-02-28T07:51:05;5.30;73.70
17452;DHT22;8843;48.838;9.324;2023-02-28T07:53:32;5.30;74.50
17452;DHT22;8843;48.838;9.324;2023-02-28T07:56:01;5.30;73.70
17452;DHT22;8843;48.838;9.324;2023-02-28T07:58:29;5.30;73.90
17452;DHT22;8843;48.838;9.324;2023-02-28T08:00:56;5.30;73.80
17452;DHT22;8843;48.838;9.324;2023-02-28T08:03:24;5.30;73.70
17452;DHT22;8843;48.838;9.324;2023-02-28T08:05:52;5.20;73.50
17452;DHT22;8843;48.838;9.324;2023-02-28T08:08:19;5.20;73.90
17452;DHT22;8843;48.838;9.324;2023-02-28T08:10:46;5.20;73.90
17452;DHT22;8843;48.838;9.324;2023-02-28T08:13:13;5.20;74.00
17452;DHT22;8843;48.838;9.324;2023-02-28T08:15:40;5.20;73.90
17452;DHT22;8843;48.838;9.324;2023-02-28T08:18:08;5.20;74.80
17452;DHT22;8843;48.838;9.324;2023-02-28T08:20:35;5.20;74.00
17452;DHT22;8843;48.838;9.324;2023-02-28T08:23:03;5.20;74.20
17452;DHT22;8843;48.838;9.324;2023-02-28T08:25:30;5.20;74.20
17452;DHT22;8843;48.838;9.324;2023-02-28T08:27:57;5.20;74.00
17452;DHT22;8843;48.838;9.324;2023-02-28T08:30:24;5.20;73.50
17452;DHT22;8843;48.838;9.324;2023-02-28T08:32:50;5.20;74.00
17452;DHT22;8843;48.838;9.324;2023-02-28T08:35:17;5.20;73.10
17452;DHT22;8843;48.838;9.324;2023-02-28T08:37:44;5.20;74.30
17452;DHT22;8843;48.838;9.324;2023-02-28T08:40:15;5.20;74.20
17452;DHT22;8843;48.838;9.324;2023-02-28T08:42:43;5.20;74.10
17452;DHT22;8843;48.838;9.324;2023-02-28T08:45:11;5.20;74.20
17452;DHT22;8843;48.838;9.324;2023-02-28T08:47:38;5.20;74.40
17452;DHT22;8843;48.838;9.324;2023-02-28T08:50:05;5.10;73.60
17452;DHT22;8843;48.838;9.324;2023-02-28T08:52:33;5.20;74.30
17452;DHT22;8843;48.838;9.324;2023-02-28T08:55:00;5.20;74.40
17452;DHT22;8843;48.838;9.324;2023-02-28T08:57:28;5.20;74.40
17452;DHT22;8843;48.838;9.324;2023-02-28T08:59:55;5.20;74.50
17452;DHT22;8843;48.838;9.324;2023-02-28T09:02:22;5.20;74.20
17452;DHT22;8843;48.838;9.324;2023-02-28T09:04:49;5.10;75.00
17452;DHT22;8843;48.838;9.324;2023-02-28T09:07:16;5.20;75.10
17452;DHT22;8843;48.838;9.324;2023-02-28T09:09:43;5.20;74.50
17452;DHT22;8843;48.838;9.324;2023-02-28T09:12:20;5.20;74.50
17452;DHT22;8843;48.838;9.324;2023-02-28T09:14:48;5.20;74.50
17452;DHT22;8843;48.838;9.324;2023-02-28T09:17:15;5.20;74.50
17452;DHT22;8843;48.838;9.324;2023-02-28T09:19:42;5.20;74.90
17452;DHT22;8843;48.838;9.324;2023-02-28T09:22:09;5.20;74.60
17452;DHT22;8843;48.838;9.324;2023-02-28T09:24:36;5.20;73.80
17452;DHT22;8843;48.838;9.324;2023-02-28T09:27:04;5.20;74.60
17452;DHT22;8843;48.838;9.324;2023-02-28T09:29:31;5.20;74.70
17452;DHT22;8843;48.838;9.324;2023-02-28T09:32:00;5.20;74.60
17452;DHT22;8843;48.838;9.324;2023-02-28T09:34:27;5.20;73.10
17452;DHT22;8843;48.838;9.324;2023-02-28T09:36:56;5.00;71.90
17452;DHT22;8843;48.838;9.324;2023-02-28T09:39:23;5.10;75.50
17452;DHT22;8843;48.838;9.324;2023-02-28T09:41:53;5.10;74.50
17452;DHT22;8843;48.838;9.324;2023-02-28T09:44:26;5.20;74.80
17452;DHT22;8843;48.838;9.324;2023-02-28T09:46:59;5.20;74.80
17452;DHT22;8843;48.838;9.324;2023-02-28T09:49:34;5.20;74.70
17452;DHT22;8843;48.838;9.324;2023-02-28T09:52:07;5.10;73.80
17452;DHT22;8843;48.838;9.324;2023-02-28T09:54:36;5.00;71.80
17452;DHT22;8843;48.838;9.324;2023-02-28T09:57:08;5.00;74.30
17452;DHT22;8843;48.838;9.324;2023-02-28T09:59:53;5.00;73.40
17452;DHT22;8843;48.838;9.324;2023-02-28T10:02:49;5.10;73.90
17452;DHT22;8843;48.838;9.324;2023-02-28T10:05:20;5.00;73.30
17452;DHT22;8843;48.838;9.324;2023-02-28T10:07:56;5.10;73.90
17452;DHT22;8843;48.838;9.324;2023-02-28T10:10:31;5.10;75.10
17452;DHT22;8843;48.838;9.324;2023-02-28T10:13:01;5.10;74.70
17452;DHT22;8843;48.838;9.324;2023-02-28T10:15:31;5.00;74.00
17452;DHT22;8843;48.838;9.324;2023-02-28T10:18:04;5.10;74.90
17452;DHT22;8843;48.838;9.324;2023-02-28T10:20:37;5.10;73.20
17452;DHT22;8843;48.838;9.324;2023-02-28T10:23:10;5.20;74.90
17452;DHT22;8843;48.838;9.324;2023-02-28T10:25:39;5.20;75.00
17452;DHT22;8843;48.838;9.324;2023-02-28T10:28:10;5.10;74.00
17452;DHT22;8843;48.838;9.324;2023-02-28T10:30:39;5.20;74.90
17452;DHT22;8843;48.838;9.324;2023-02-28T10:33:21;5.10;74.50
17452;DHT22;8843;48.838;9.324;2023-02-28T10:35:48;5.10;74.40
17452;DHT22;8843;48.838;9.324;2023-02-28T10:38:18;5.10;73.80
17452;DHT22;8843;48.838;9.324;2023-02-28T10:40:45;5.10;73.20
17452;DHT22;8843;48.838;9.324;2023-02-28T10:43:20;5.10;73.00
17452;DHT22;8843;48.838;9.324;2023-02-28T10:46:13;5.10;73.80
17452;DHT22;8843;48.838;9.324;2023-02-28T10:48:44;5.10;74.30
17452;DHT22;8843;48.838;9.324;2023-02-28T10:51:14;5.10;72.60
17452;DHT22;8843;48.838;9.324;2023-02-28T10:53:49;5.10;74.80
17452;DHT22;8843;48.838;9.324;2023-02-28T10:56:19;5.20;74.70
17452;DHT22;8843;48.838;9.324;2023-02-28T10:58:53;5.10;74.10
17452;DHT22;8843;48.838;9.324;2023-02-28T11:01:22;5.10;74.50
17452;DHT22;8843;48.838;9.324;2023-02-28T11:03:51;5.10;74.00
17452;DHT22;8843;48.838;9.324;2023-02-28T11:06:21;5.10;74.10
17452;DHT22;8843;48.838;9.324;2023-02-28T11:08:51;5.20;73.60
17452;DHT22;8843;48.838;9.324;2023-02-28T11:11:20;5.20;72.10
17452;DHT22;8843;48.838;9.324;2023-02-28T11:14:04;5.30;72.60
17452;DHT22;8843;48.838;9.324;2023-02-28T11:16:33;6.10;71.10
17452;DHT22;8843;48.838;9.324;2023-02-28T11:19:02;6.00;66.90
17452;DHT22;8843;48.838;9.324;2023-02-28T11:21:32;6.10;66.00
17452;DHT22;8843;48.838;9.324;2023-02-28T11:24:03;6.40;67.10
17452;DHT22;8843;48.838;9.324;2023-02-28T11:26:42;6.40;63.60
17452;DHT22;8843;48.838;9.324;2023-02-28T11:29:16;6.50;65.40
17452;DHT22;8843;48.838;9.324;2023-02-28T11:32:01;6.80;65.80
17452;DHT22;8843;48.838;9.324;2023-02-28T11:34:31;6.90;63.10
17452;DHT22;8843;48.838;9.324;2023-02-28T11:36:59;7.50;68.40
17452;DHT22;8843;48.838;9.324;2023-02-28T11:39:31;7.40;65.40
17452;DHT22;8843;48.838;9.324;2023-02-28T11:45:15;7.30;67.40
17452;DHT22;8843;48.838;9.324;2023-02-28T11:47:50;7.40;68.30
17452;DHT22;8843;48.838;9.324;2023-02-28T11:50:42;7.50;67.30
17452;DHT22;8843;48.838;9.324;2023-02-28T11:53:19;7.60;66.90
17452;DHT22;8843;48.838;9.324;2023-02-28T11:55:53;7.70;66.20
17452;DHT22;8843;48.838;9.324;2023-02-28T11:58:34;7.90;65.80
17452;DHT22;8843;48.838;9.324;2023-02-28T12:01:23;7.80;65.80
17452;DHT22;8843;48.838;9.324;2023-02-28T12:04:03;7.80;67.90
17452;DHT22;8843;48.838;9.324;2023-02-28T12:06:38;8.00;65.70
17452;DHT22;8843;48.838;9.324;2023-02-28T12:09:38;7.70;67.20
17452;DHT22;8843;48.838;9.324;2023-02-28T12:12:21;7.70;67.00
17452;DHT22;8843;48.838;9.324;2023-02-28T12:18:16;7.90;64.70
17452;DHT22;8843;48.838;9.324;2023-02-28T12:20:53;8.10;63.90
17452;DHT22;8843;48.838;9.324;2023-02-28T12:23:47;8.00;64.60
17452;DHT22;8843;48.838;9.324;2023-02-28T12:26:19;8.00;66.00
17452;DHT22;8843;48.838;9.324;2023-02-28T12:28:52;7.80;66.20
17452;DHT22;8843;48.838;9.324;2023-02-28T12:31:21;7.70;66.10
17452;DHT22;8843;48.838;9.324;2023-02-28T12:33:52;7.80;64.60
17452;DHT22;8843;48.838;9.324;2023-02-28T12:36:20;8.00;64.40
17452;DHT22;8843;48.838;9.324;2023-02-28T12:38:55;8.00;62.00
17452;DHT22;8843;48.838;9.324;2023-02-28T12:41:29;8.10;63.00
17452;DHT22;8843;48.838;9.324;2023-02-28T12:44:02;8.10;63.80
17452;DHT22;8843;48.838;9.324;2023-02-28T12:46:33;8.40;62.60
17452;DHT22;8843;48.838;9.324;2023-02-28T12:49:05;8.50;62.90
17452;DHT22;8843;48.838;9.324;2023-02-28T12:51:34;8.60;63.10
17452;DHT22;8843;48.838;9.324;2023-02-28T12:54:10;8.80;60.70
17452;DHT22;8843;48.838;9.324;2023-02-28T12:56:45;8.70;61.60
17452;DHT22;8843;48.838;9.324;2023-02-28T12:59:20;8.70;61.30
17452;DHT22;8843;48.838;9.324;2023-02-28T13:02:02;8.70;63.00
17452;DHT22;8843;48.838;9.324;2023-02-28T13:04:52;8.90;60.60
17452;DHT22;8843;48.838;9.324;2023-02-28T13:07:43;8.90;60.10
17452;DHT22;8843;48.838;9.324;2023-02-28T13:10:15;8.60;62.90
17452;DHT22;8843;48.838;9.324;2023-02-28T13:12:48;8.50;61.30
17452;DHT22;8843;48.838;9.324;2023-02-28T13:15:18;8.60;60.70
17452;DHT22;8843;48.838;9.324;2023-02-28T13:17:50;8.50;62.00
17452;DHT22;8843;48.838;9.324;2023-02-28T13:20:19;8.70;61.70
17452;DHT22;8843;48.838;9.324;2023-02-28T13:22:48;8.80;60.20
17452;DHT22;8843;48.838;9.324;2023-02-28T13:34:40;8.70;61.10
17452;DHT22;8843;48.838;9.324;2023-02-28T13:37:33;8.60;62.50
17452;DHT22;8843;48.838;9.324;2023-02-28T13:40:27;8.60;63.10
17452;DHT22;8843;48.838;9.324;2023-02-28T13:42:55;8.80;60.00
17452;DHT22;8843;48.838;9.324;2023-02-28T13:45:26;9.00;59.40
17452;DHT22;8843;48.838;9.324;2023-02-28T13:47:59;9.00;58.70
17452;DHT22;8843;48.838;9.324;2023-02-28T13:50:33;9.00;59.50
17452;DHT22;8843;48.838;9.324;2023-02-28T13:53:49;8.80;61.00
17452;DHT22;8843;48.838;9.324;2023-02-28T13:56:30;8.60;60.90
17452;DHT22;8843;48.838;9.324;2023-02-28T13:59:06;8.80;59.90
17452;DHT22;8843;48.838;9.324;2023-02-28T14:01:55;8.50;60.50
17452;DHT22;8843;48.838;9.324;2023-02-28T14:04:56;8.60;60.70
17452;DHT22;8843;48.838;9.324;2023-02-28T14:07:28;8.90;58.70
17452;DHT22;8843;48.838;9.324;2023-02-28T14:09:59;9.00;58.60
17452;DHT22;8843;48.838;9.324;2023-02-28T14:13:02;8.80;58.50
17452;DHT22;8843;48.838;9.324;2023-02-28T14:15:44;8.70;60.90
17452;DHT22;8843;48.838;9.324;2023-02-28T14:18:21;8.50;62.20
17452;DHT22;8843;48.838;9.324;2023-02-28T14:20:55;8.60;60.00
17452;DHT22;8843;48.838;9.324;2023-02-28T14:26:29;8.50;61.50
17452;DHT22;8843;48.838;9.324;2023-02-28T14:29:13;8.60;59.50
17452;DHT22;8843;48.838;9.324;2023-02-28T14:31:48;8.60;59.50
17452;DHT22;8843;48.838;9.324;2023-02-28T14:34:35;8.70;60.10
17452;DHT22;8843;48.838;9.324;2023-02-28T14:37:13;8.60;60.10
17452;DHT22;8843;48.838;9.324;2023-02-28T14:39:42;8.60;59.30
17452;DHT22;8843;48.838;9.324;2023-02-28T14:42:27;8.60;62.10
17452;DHT22;8843;48.838;9.324;2023-02-28T14:44:54;8.20;63.70
17452;DHT22;8843;48.838;9.324;2023-02-28T14:47:24;8.20;64.00
17452;DHT22;8843;48.838;9.324;2023-02-28T14:49:53;8.20;62.30
17452;DHT22;8843;48.838;9.324;2023-02-28T14:52:24;8.40;62.60
17452;DHT22;8843;48.838;9.324;2023-02-28T14:54:53;8.40;61.90
17452;DHT22;8843;48.838;9.324;2023-02-28T14:57:22;8.20;63.00
17452;DHT22;8843;48.838;9.324;2023-02-28T14:59:58;8.30;61.40
17452;DHT22;8843;48.838;9.324;2023-02-28T15:02:29;8.20;63.30
17452;DHT22;8843;48.838;9.324;2023-02-28T15:04:58;8.40;61.70
17452;DHT22;8843;48.838;9.324;2023-02-28T15:07:27;8.20;62.70
17452;DHT22;8843;48.838;9.324;2023-02-28T15:10:21;8.20;63.40
17452;DHT22;8843;48.838;9.324;2023-02-28T15:12:52;9.10;78.60
17452;DHT22;8843;48.838;9.324;2023-02-28T15:15:22;10.20;68.70
17452;DHT22;8843;48.838;9.324;2023-02-28T15:17:54;9.40;56.10
17452;DHT22;8843;48.838;9.324;2023-02-28T15:20:24;8.80;62.40
17452;DHT22;8843;48.838;9.324;2023-02-28T15:22:55;8.30;63.60
17452;DHT22;8843;48.838;9.324;2023-02-28T15:25:23;8.10;63.70
17452;DHT22;8843;48.838;9.324;2023-02-28T15:27:54;8.00;63.90
17452;DHT22;8843;48.838;9.324;2023-02-28T15:30:26;8.00;60.80
17452;DHT22;8843;48.838;9.324;2023-02-28T15:33:06;8.00;60.10
17452;DHT22;8843;48.838;9.324;2023-02-28T15:35:34;8.00;61.60
17452;DHT22;8843;48.838;9.324;2023-02-28T15:38:04;7.90;61.40
17452;DHT22;8843;48.838;9.324;2023-02-28T15:40:43;7.80;61.80
17452;DHT22;8843;48.838;9.324;2023-02-28T15:43:15;7.90;60.10
17452;DHT22;8843;48.838;9.324;2023-02-28T15:45:45;7.80;63.90
17452;DHT22;8843;48.838;9.324;2023-02-28T15:48:18;7.80;61.00
17452;DHT22;8843;48.838;9.324;2023-02-28T15:50:49;7.80;60.80
17452;DHT22;8843;48.838;9.324;2023-02-28T15:53:21;7.70;62.40
17452;DHT22;8843;48.838;9.324;2023-02-28T15:55:54;7.60;63.10
17452;DHT22;8843;48.838;9.324;2023-02-28T15:58:22;7.50;62.30
17452;DHT22;8843;48.838;9.324;2023-02-28T16:01:15;7.40;63.40
17452;DHT22;8843;48.838;9.324;2023-02-28T16:03:45;7.40;64.00
17452;DHT22;8843;48.838;9.324;2023-02-28T16:06:36;7.50;60.70
17452;DHT22;8843;48.838;9.324;2023-02-28T16:09:07;7.40;64.20
17452;DHT22;8843;48.838;9.324;2023-02-28T16:11:38;7.30;61.80
17452;DHT22;8843;48.838;9.324;2023-02-28T16:14:08;7.20;61.20
17452;DHT22;8843;48.838;9.324;2023-02-28T16:16:42;7.20;61.50
17452;DHT22;8843;48.838;9.324;2023-02-28T16:19:09;7.20;61.00
17452;DHT22;8843;48.838;9.324;2023-02-28T16:21:36;7.10;66.70
17452;DHT22;8843;48.838;9.324;2023-02-28T16:24:04;7.10;63.90
17452;DHT22;8843;48.838;9.324;2023-02-28T16:26:31;7.10;61.00
17452;DHT22;8843;48.838;9.324;2023-02-28T16:29:00;7.00;65.00
17452;DHT22;8843;48.838;9.324;2023-02-28T16:31:27;7.00;66.00
17452;DHT22;8843;48.838;9.324;2023-02-28T16:33:54;6.90;65.50
17452;DHT22;8843;48.838;9.324;2023-02-28T16:36:23;6.80;68.00
17452;DHT22;8843;48.838;9.324;2023-02-28T16:38:51;6.90;68.80
17452;DHT22;8843;48.838;9.324;2023-02-28T16:41:21;6.80;67.30
17452;DHT22;8843;48.838;9.324;2023-02-28T16:43:50;6.80;67.30
17452;DHT22;8843;48.838;9.324;2023-02-28T16:46:18;6.80;68.70
17452;DHT22;8843;48.838;9.324;2023-02-28T16:48:46;6.70;64.90
17452;DHT22;8843;48.838;9.324;2023-02-28T16:51:17;6.70;66.90
17452;DHT22;8843;48.838;9.324;2023-02-28T16:53:44;6.70;67.70